createdAt,value
2023-08-08T00:01:22.101Z,1.60
2023-08-08T00:03:48.722Z,1.92
2023-08-08T00:06:15.409Z,2.22
2023-08-08T00:08:42.511Z,2.05
2023-08-08T00:11:09.248Z,1.85
2023-08-08T00:13:35.986Z,2.45
2023-08-08T00:16:03.597Z,1.70
2023-08-08T00:18:30.429Z,1.98
2023-08-08T00:20:57.018Z,1.90
2023-08-08T00:23:23.586Z,2.10
2023-08-08T00:25:52.051Z,1.60
2023-08-08T00:28:18.901Z,1.92
2023-08-08T00:30:45.961Z,2.00
2023-08-08T00:33:12.719Z,2.10
2023-08-08T00:35:39.340Z,2.13
2023-08-08T00:38:05.879Z,2.15
2023-08-08T00:40:32.448Z,2.72
2023-08-08T00:42:59.431Z,2.15
2023-08-08T00:45:26.036Z,2.03
2023-08-08T00:47:52.776Z,2.10
2023-08-08T00:50:19.457Z,1.92
2023-08-08T00:52:46.286Z,2.05
2023-08-08T00:55:12.967Z,1.85
2023-08-08T00:57:40.188Z,2.05
2023-08-08T01:00:10.345Z,2.17
2023-08-08T01:02:37.455Z,2.15
2023-08-08T01:05:04.986Z,2.15
2023-08-08T01:07:34.542Z,2.45
2023-08-08T01:10:08.637Z,2.13
2023-08-08T01:12:44.388Z,2.47
2023-08-08T01:15:11.562Z,2.00
2023-08-08T01:17:38.723Z,2.42
2023-08-08T01:20:06.408Z,2.17
2023-08-08T01:22:39.229Z,2.35
2023-08-08T01:25:06.077Z,2.42
2023-08-08T01:27:32.651Z,2.13
2023-08-08T01:29:59.245Z,2.38
2023-08-08T01:32:25.930Z,2.63
2023-08-08T01:34:52.600Z,2.00
2023-08-08T01:37:22.082Z,2.08
2023-08-08T01:39:49.380Z,1.80
2023-08-08T01:42:16.802Z,2.22
2023-08-08T01:44:43.712Z,2.28
2023-08-08T01:47:10.369Z,2.28
2023-08-08T01:49:36.905Z,1.92
2023-08-08T01:52:03.857Z,2.15
2023-08-08T01:54:30.455Z,2.20
2023-08-08T01:56:59.882Z,2.15
2023-08-08T01:59:26.579Z,2.08
2023-08-08T02:01:53.215Z,2.42
2023-08-08T02:04:21.343Z,2.30
2023-08-08T02:06:47.899Z,2.10
2023-08-08T02:09:16.568Z,1.38
2023-08-08T02:11:43.370Z,2.00
2023-08-08T02:14:09.984Z,2.33
2023-08-08T02:16:36.868Z,2.00
2023-08-08T02:19:03.511Z,2.15
2023-08-08T02:21:30.059Z,2.13
2023-08-08T02:23:56.729Z,2.08
2023-08-08T02:26:23.315Z,2.00
2023-08-08T02:28:49.866Z,1.83
2023-08-08T02:31:21.774Z,2.05
2023-08-08T02:33:50.680Z,2.50
2023-08-08T02:36:18.144Z,2.10
2023-08-08T02:38:45.207Z,2.42
2023-08-08T02:41:11.800Z,1.98
2023-08-08T02:43:38.477Z,2.60
2023-08-08T02:46:05.257Z,2.20
2023-08-08T02:48:32.409Z,1.83
2023-08-08T02:50:59.014Z,2.60
2023-08-08T02:53:27.504Z,1.90
2023-08-08T02:55:54.179Z,2.33
2023-08-08T02:58:20.721Z,2.63
2023-08-08T03:00:47.411Z,2.50
2023-08-08T03:03:16.397Z,2.38
2023-08-08T03:05:46.285Z,2.38
2023-08-08T03:08:15.160Z,2.42
2023-08-08T03:10:42.301Z,2.42
2023-08-08T03:13:09.181Z,2.17
2023-08-08T03:15:37.014Z,2.83
2023-08-08T03:18:05.180Z,2.20
2023-08-08T03:20:31.936Z,2.13
2023-08-08T03:22:58.591Z,3.10
2023-08-08T03:25:26.037Z,2.38
2023-08-08T03:27:52.565Z,2.35
2023-08-08T03:30:20.730Z,2.28
2023-08-08T03:32:47.976Z,3.55
2023-08-08T03:35:16.075Z,2.45
2023-08-08T03:37:43.532Z,2.53
2023-08-08T03:40:10.738Z,2.25
2023-08-08T03:42:38.494Z,2.25
2023-08-08T03:45:05.522Z,2.85
2023-08-08T03:47:32.437Z,2.67
2023-08-08T03:49:59.062Z,2.28
2023-08-08T03:52:26.839Z,2.30
2023-08-08T03:54:53.823Z,2.40
2023-08-08T03:57:22.270Z,2.45
2023-08-08T03:59:48.874Z,2.13
2023-08-08T04:02:15.513Z,2.05
2023-08-08T04:04:42.237Z,1.92
2023-08-08T04:07:08.794Z,2.30
2023-08-08T04:09:35.333Z,2.10
2023-08-08T04:12:02.201Z,1.90
2023-08-08T04:14:29.217Z,2.05
2023-08-08T04:16:56.221Z,2.33
2023-08-08T04:19:24.303Z,1.67
2023-08-08T04:21:50.913Z,1.98
2023-08-08T04:24:17.479Z,2.55
2023-08-08T04:26:44.229Z,2.33
2023-08-08T04:29:10.836Z,1.95
2023-08-08T04:31:37.449Z,2.53
2023-08-08T04:34:04.086Z,1.95
2023-08-08T04:36:30.838Z,1.92
2023-08-08T04:38:57.407Z,2.20
2023-08-08T04:41:24.005Z,1.63
2023-08-08T04:43:50.691Z,2.40
2023-08-08T04:46:17.357Z,2.10
2023-08-08T04:48:44.093Z,2.83
2023-08-08T04:51:11.065Z,2.50
2023-08-08T04:53:37.688Z,1.92
2023-08-08T04:56:04.561Z,1.90
2023-08-08T04:58:31.250Z,2.28
2023-08-08T05:00:57.983Z,2.47
2023-08-08T05:03:24.801Z,1.85
2023-08-08T05:05:51.480Z,3.10
2023-08-08T05:08:18.086Z,1.90
2023-08-08T05:10:44.828Z,2.10
2023-08-08T05:13:11.926Z,2.20
2023-08-08T05:15:38.595Z,2.50
2023-08-08T05:18:05.745Z,1.52
2023-08-08T05:20:32.384Z,1.80
2023-08-08T05:22:58.982Z,1.95
2023-08-08T05:25:25.696Z,2.00
2023-08-08T05:27:52.276Z,2.45
2023-08-08T05:30:18.876Z,1.48
2023-08-08T05:32:45.497Z,2.10
2023-08-08T05:35:12.119Z,1.75
2023-08-08T05:37:38.743Z,1.48
2023-08-08T05:40:07.430Z,1.80
2023-08-08T05:42:34.836Z,1.70
2023-08-08T05:45:01.554Z,2.42
2023-08-08T05:47:28.124Z,2.10
2023-08-08T05:49:55.428Z,1.42
2023-08-08T05:52:23.055Z,1.75
2023-08-08T05:54:49.780Z,1.80
2023-08-08T05:57:16.358Z,2.35
2023-08-08T05:59:45.821Z,1.60
2023-08-08T06:02:12.418Z,1.90
2023-08-08T06:04:39.016Z,1.83
2023-08-08T06:07:07.582Z,1.70
2023-08-08T06:09:37.908Z,1.50
2023-08-08T06:12:04.893Z,1.85
2023-08-08T06:14:31.870Z,1.63
2023-08-08T06:16:58.480Z,1.55
2023-08-08T06:19:25.113Z,1.70
2023-08-08T06:21:51.656Z,1.85
2023-08-08T06:24:18.325Z,1.13
2023-08-08T06:26:44.873Z,1.50
2023-08-08T06:29:11.940Z,1.40
2023-08-08T06:31:38.553Z,1.80
2023-08-08T06:34:05.117Z,1.88
2023-08-08T06:36:31.707Z,1.70
2023-08-08T06:38:58.316Z,1.58
2023-08-08T06:41:24.902Z,1.70
2023-08-08T06:43:52.273Z,1.60
2023-08-08T06:46:21.498Z,2.20
2023-08-08T06:48:49.255Z,1.80
2023-08-08T06:51:15.997Z,2.00
2023-08-08T06:53:42.604Z,2.10
2023-08-08T06:56:09.174Z,2.17
2023-08-08T06:58:35.750Z,1.88
2023-08-08T07:01:02.522Z,1.83
2023-08-08T07:03:29.425Z,1.90
2023-08-08T07:05:56.059Z,2.50
2023-08-08T07:08:22.923Z,1.70
2023-08-08T07:10:54.727Z,1.90
2023-08-08T07:13:26.058Z,1.73
2023-08-08T07:15:52.748Z,1.63
2023-08-08T07:18:19.422Z,1.83
2023-08-08T07:20:46.006Z,2.88
2023-08-08T07:23:12.838Z,2.00
2023-08-08T07:25:39.342Z,2.47
2023-08-08T07:28:05.974Z,2.13
2023-08-08T07:30:32.542Z,2.03
2023-08-08T07:32:59.325Z,1.85
2023-08-08T07:35:25.962Z,1.63
2023-08-08T07:37:52.622Z,2.00
2023-08-08T07:40:21.313Z,2.13
2023-08-08T07:42:49.022Z,1.95
2023-08-08T07:45:16.245Z,1.80
2023-08-08T07:47:43.250Z,2.08
2023-08-08T07:50:10.153Z,1.92
2023-08-08T07:52:37.688Z,2.35
2023-08-08T07:55:05.436Z,2.20
2023-08-08T07:57:35.644Z,2.10
2023-08-08T08:00:09.215Z,2.50
2023-08-08T08:02:45.025Z,2.33
2023-08-08T08:05:11.722Z,2.10
2023-08-08T08:07:39.081Z,2.28
2023-08-08T08:10:07.704Z,3.40
2023-08-08T08:12:34.568Z,3.08
2023-08-08T08:15:01.804Z,3.58
2023-08-08T08:17:31.448Z,2.65
2023-08-08T08:19:58.233Z,2.72
2023-08-08T08:22:24.867Z,2.70
2023-08-08T08:24:51.414Z,2.47
2023-08-08T08:27:18.921Z,2.33
2023-08-08T08:29:45.520Z,2.50
2023-08-08T08:32:12.213Z,2.72
2023-08-08T08:34:38.762Z,2.70
2023-08-08T08:37:05.406Z,2.72
2023-08-08T08:39:31.979Z,2.70
2023-08-08T08:42:06.270Z,2.70
2023-08-08T08:44:33.383Z,3.35
2023-08-08T08:47:05.294Z,3.45
2023-08-08T08:49:32.455Z,3.08
2023-08-08T08:52:02.260Z,3.22
2023-08-08T08:54:33.025Z,3.70
2023-08-08T08:56:59.749Z,2.70
2023-08-08T08:59:26.373Z,2.10
2023-08-08T09:01:53.710Z,2.40
2023-08-08T09:04:21.451Z,2.50
2023-08-08T09:06:49.099Z,2.22
2023-08-08T09:09:17.284Z,2.20
2023-08-08T09:11:49.249Z,2.17
2023-08-08T09:14:17.768Z,2.03
2023-08-08T09:16:44.607Z,2.55
2023-08-08T09:19:11.156Z,1.88
2023-08-08T09:21:37.669Z,1.95
2023-08-08T09:24:05.842Z,1.70
2023-08-08T09:26:32.776Z,2.03
2023-08-08T09:28:59.409Z,1.75
2023-08-08T09:31:27.006Z,1.80
2023-08-08T09:34:00.180Z,1.85
2023-08-08T09:36:27.319Z,2.10
2023-08-08T09:38:54.918Z,1.90
2023-08-08T09:41:22.426Z,1.52
2023-08-08T09:43:49.736Z,1.90
2023-08-08T09:46:19.423Z,2.30
2023-08-08T09:48:46.882Z,2.10
2023-08-08T09:51:13.498Z,1.88
2023-08-08T09:53:41.762Z,1.98
2023-08-08T09:56:09.841Z,2.40
2023-08-08T09:58:36.643Z,2.10
2023-08-08T10:01:05.777Z,2.35
2023-08-08T10:03:33.328Z,2.33
2023-08-08T10:06:00.261Z,2.53
2023-08-08T10:08:26.955Z,2.80
2023-08-08T10:10:54.041Z,2.15
2023-08-08T10:13:25.954Z,1.90
2023-08-08T10:15:53.114Z,1.85
2023-08-08T10:18:22.967Z,2.20
2023-08-08T10:20:50.851Z,2.15
2023-08-08T10:23:21.311Z,2.28
2023-08-08T10:25:49.930Z,2.30
2023-08-08T10:28:26.969Z,2.03
2023-08-08T10:30:59.470Z,1.77
2023-08-08T10:33:27.134Z,2.00
2023-08-08T10:36:02.518Z,2.00
2023-08-08T10:38:41.638Z,1.83
2023-08-08T10:41:13.365Z,1.80
2023-08-08T10:43:41.851Z,1.90
2023-08-08T10:48:38.321Z,1.80
2023-08-08T10:51:06.916Z,2.05
2023-08-08T10:53:33.626Z,2.10
2023-08-08T10:56:03.456Z,2.28
2023-08-08T10:58:41.229Z,1.98
2023-08-08T11:01:10.137Z,1.85
2023-08-08T11:03:38.142Z,1.88
2023-08-08T11:06:04.952Z,2.38
2023-08-08T11:08:32.870Z,2.00
2023-08-08T11:11:00.416Z,2.40
2023-08-08T11:13:27.457Z,2.05
2023-08-08T11:15:54.313Z,1.75
2023-08-08T11:18:21.363Z,2.22
2023-08-08T11:20:48.750Z,2.45
2023-08-08T11:23:15.799Z,2.20
2023-08-08T11:25:43.863Z,1.95
2023-08-08T11:28:11.541Z,2.25
2023-08-08T11:30:40.021Z,2.10
2023-08-08T11:35:37.893Z,2.20
2023-08-08T11:38:07.967Z,2.28
2023-08-08T11:40:35.400Z,2.22
2023-08-08T11:43:02.234Z,2.10
2023-08-08T11:45:29.483Z,2.15
2023-08-08T11:47:56.835Z,1.98
2023-08-08T11:50:25.437Z,1.85
2023-08-08T11:52:56.515Z,2.05
2023-08-08T11:55:29.901Z,1.80
2023-08-08T11:58:01.280Z,2.15
2023-08-08T12:00:31.944Z,2.00
2023-08-08T12:02:59.898Z,1.90
2023-08-08T12:05:26.996Z,2.35
2023-08-08T12:07:53.685Z,1.77
2023-08-08T12:10:23.074Z,1.85
2023-08-08T12:12:59.562Z,2.10
2023-08-08T12:15:34.064Z,2.05
2023-08-08T12:18:01.273Z,1.95
2023-08-08T12:20:30.131Z,2.22
2023-08-08T12:22:56.822Z,2.20
2023-08-08T12:25:26.389Z,2.35
2023-08-08T12:27:53.195Z,2.00
2023-08-08T12:30:20.974Z,2.63
2023-08-08T12:32:47.984Z,2.42
2023-08-08T12:35:16.980Z,2.33
2023-08-08T12:37:43.778Z,2.20
2023-08-08T12:40:10.806Z,2.22
2023-08-08T12:42:37.588Z,2.72
2023-08-08T12:45:04.591Z,2.35
2023-08-08T12:47:32.883Z,2.80
2023-08-08T12:49:59.645Z,2.38
2023-08-08T12:52:26.701Z,2.50
2023-08-08T12:54:53.412Z,2.65
2023-08-08T12:57:20.104Z,2.40
2023-08-08T12:59:46.759Z,1.98
2023-08-08T13:02:13.530Z,2.53
2023-08-08T13:04:40.326Z,2.33
2023-08-08T13:07:07.070Z,2.20
2023-08-08T13:09:34.167Z,2.33
2023-08-08T13:12:01.581Z,2.20
2023-08-08T13:14:28.671Z,2.15
2023-08-08T13:16:55.407Z,2.20
2023-08-08T13:19:25.885Z,2.40
2023-08-08T13:21:53.412Z,2.30
2023-08-08T13:24:21.899Z,2.50
2023-08-08T13:26:48.491Z,2.40
2023-08-08T13:29:15.105Z,2.25
2023-08-08T13:31:41.752Z,2.67
2023-08-08T13:34:08.477Z,3.10
2023-08-08T13:36:35.143Z,3.10
2023-08-08T13:39:01.778Z,3.20
2023-08-08T13:41:28.378Z,2.97
2023-08-08T13:43:54.896Z,2.85
2023-08-08T13:46:21.519Z,2.75
2023-08-08T13:48:48.189Z,3.38
2023-08-08T13:51:14.766Z,3.20
2023-08-08T13:53:41.327Z,3.28
2023-08-08T13:56:07.885Z,3.10
2023-08-08T13:58:34.447Z,2.97
2023-08-08T14:01:01.036Z,2.83
2023-08-08T14:03:27.958Z,2.85
2023-08-08T14:05:54.691Z,3.20
2023-08-08T14:08:21.484Z,2.70
2023-08-08T14:10:48.075Z,2.80
2023-08-08T14:13:14.686Z,3.00
2023-08-08T14:15:41.353Z,3.20
2023-08-08T14:18:08.694Z,2.90
2023-08-08T14:20:35.370Z,2.78
2023-08-08T14:23:01.927Z,2.50
2023-08-08T14:25:28.528Z,2.25
2023-08-08T14:27:55.136Z,1.65
2023-08-08T14:30:22.441Z,1.30
2023-08-08T14:32:49.372Z,1.70
2023-08-08T14:35:15.983Z,1.80
2023-08-08T14:37:42.588Z,1.80
2023-08-08T14:40:10.075Z,1.92
2023-08-08T14:42:36.799Z,1.77
2023-08-08T14:45:03.687Z,1.85
2023-08-08T14:47:30.305Z,1.90
2023-08-08T14:49:56.923Z,2.08
2023-08-08T14:52:24.897Z,2.00
2023-08-08T14:54:51.548Z,1.95
2023-08-08T14:57:18.215Z,2.40
2023-08-08T14:59:44.921Z,2.10
2023-08-08T15:02:11.669Z,2.15
2023-08-08T15:04:38.269Z,1.70
2023-08-08T15:07:04.895Z,2.10
2023-08-08T15:09:31.819Z,1.83
2023-08-08T15:11:58.400Z,1.83
2023-08-08T15:14:24.931Z,1.90
2023-08-08T15:16:52.862Z,2.28
2023-08-08T15:19:19.495Z,1.80
2023-08-08T15:21:46.686Z,1.95
2023-08-08T15:24:13.548Z,2.15
2023-08-08T15:26:40.195Z,2.40
2023-08-08T15:29:06.781Z,1.83
2023-08-08T15:31:34.040Z,1.90
2023-08-08T15:34:01.516Z,1.85
2023-08-08T15:36:28.273Z,2.30
2023-08-08T15:38:55.208Z,1.95
2023-08-08T15:41:21.783Z,1.95
2023-08-08T15:43:48.338Z,2.10
2023-08-08T15:46:14.906Z,2.00
2023-08-08T15:48:41.491Z,1.80
2023-08-08T15:51:08.076Z,1.98
2023-08-08T15:53:37.349Z,2.33
2023-08-08T15:56:04.046Z,2.25
2023-08-08T15:58:30.624Z,2.10
2023-08-08T16:00:57.649Z,2.10
2023-08-08T16:03:24.489Z,1.90
2023-08-08T16:05:51.185Z,2.15
2023-08-08T16:08:18.912Z,2.10
2023-08-08T16:10:45.809Z,2.03
2023-08-08T16:13:12.414Z,2.15
2023-08-08T16:15:38.978Z,2.20
2023-08-08T16:18:05.746Z,2.13
2023-08-08T16:20:32.579Z,2.10
2023-08-08T16:22:59.285Z,2.40
2023-08-08T16:25:25.858Z,2.03
2023-08-08T16:27:52.444Z,2.47
2023-08-08T16:30:19.054Z,1.80
2023-08-08T16:32:45.789Z,2.00
2023-08-08T16:35:12.431Z,1.92
2023-08-08T16:37:39.091Z,2.15
2023-08-08T16:40:06.267Z,2.20
2023-08-08T16:42:32.963Z,2.10
2023-08-08T16:44:59.535Z,1.92
2023-08-08T16:47:26.400Z,2.03
2023-08-08T16:49:53.067Z,1.67
2023-08-08T16:52:20.029Z,1.60
2023-08-08T16:54:48.034Z,1.70
2023-08-08T16:57:14.738Z,1.95
2023-08-08T16:59:41.485Z,2.17
2023-08-08T17:02:09.409Z,2.03
2023-08-08T17:04:36.109Z,1.70
2023-08-08T17:07:03.927Z,1.80
2023-08-08T17:09:31.042Z,1.80
2023-08-08T17:11:57.665Z,1.80
2023-08-08T17:14:24.342Z,2.00
2023-08-08T17:16:53.443Z,2.08
2023-08-08T17:19:21.249Z,1.73
2023-08-08T17:21:47.822Z,1.83
2023-08-08T17:24:17.548Z,2.10
2023-08-08T17:26:44.931Z,1.70
2023-08-08T17:29:11.647Z,1.80
2023-08-08T17:31:38.640Z,2.10
2023-08-08T17:34:07.088Z,1.80
2023-08-08T17:36:36.079Z,1.83
2023-08-08T17:39:02.996Z,1.67
2023-08-08T17:41:29.869Z,1.40
2023-08-08T17:43:56.835Z,1.65
2023-08-08T17:46:23.548Z,1.63
2023-08-08T17:48:50.207Z,2.22
2023-08-08T17:51:17.239Z,1.85
2023-08-08T17:53:44.154Z,1.90
2023-08-08T17:56:14.102Z,1.73
2023-08-08T17:58:45.830Z,1.60
2023-08-08T18:01:13.336Z,1.90
2023-08-08T18:03:40.648Z,1.75
2023-08-08T18:06:07.309Z,2.03
2023-08-08T18:08:33.916Z,1.80
2023-08-08T18:11:00.607Z,1.88
2023-08-08T18:13:27.268Z,1.98
2023-08-08T18:15:55.640Z,2.00
2023-08-08T18:18:24.484Z,1.75
2023-08-08T18:20:51.183Z,2.00
2023-08-08T18:23:18.384Z,1.92
2023-08-08T18:25:45.874Z,1.90
2023-08-08T18:28:12.543Z,1.85
2023-08-08T18:30:39.213Z,2.15
2023-08-08T18:33:06.581Z,1.90
2023-08-08T18:35:33.810Z,1.83
2023-08-08T18:38:00.682Z,2.08
2023-08-08T18:40:27.534Z,1.90
2023-08-08T18:42:54.073Z,2.17
2023-08-08T18:45:20.628Z,2.03
2023-08-08T18:47:47.308Z,2.03
2023-08-08T18:50:14.007Z,1.90
2023-08-08T18:52:40.663Z,1.90
2023-08-08T18:55:07.728Z,1.88
2023-08-08T18:57:34.938Z,1.95
2023-08-08T19:00:03.839Z,1.88
2023-08-08T19:02:30.524Z,1.85
2023-08-08T19:04:57.233Z,1.90
2023-08-08T19:07:24.037Z,1.95
2023-08-08T19:09:50.882Z,1.80
2023-08-08T19:12:17.550Z,2.13
2023-08-08T19:14:44.245Z,2.20
2023-08-08T19:17:10.996Z,2.05
2023-08-08T19:19:37.811Z,2.13
2023-08-08T19:22:04.755Z,1.77
2023-08-08T19:24:31.893Z,1.88
2023-08-08T19:26:58.487Z,2.53
2023-08-08T19:29:25.696Z,2.10
2023-08-08T19:31:52.413Z,1.98
2023-08-08T19:34:19.196Z,2.08
2023-08-08T19:36:45.865Z,1.88
2023-08-08T19:39:12.574Z,1.90
2023-08-08T19:41:39.219Z,2.17
2023-08-08T19:44:05.803Z,2.08
2023-08-08T19:46:33.014Z,2.33
2023-08-08T19:48:59.793Z,2.45
2023-08-08T19:51:28.870Z,2.30
2023-08-08T19:53:56.929Z,2.15
2023-08-08T19:56:25.827Z,1.70
2023-08-08T19:58:52.483Z,2.03
2023-08-08T20:01:19.229Z,2.65
2023-08-08T20:03:46.015Z,2.28
2023-08-08T20:06:12.682Z,2.60
2023-08-08T20:08:39.319Z,2.53
2023-08-08T20:11:06.938Z,2.05
2023-08-08T20:13:33.621Z,2.35
2023-08-08T20:16:00.312Z,3.00
2023-08-08T20:18:26.959Z,2.42
2023-08-08T20:20:53.934Z,2.38
2023-08-08T20:23:20.584Z,2.05
2023-08-08T20:25:47.309Z,2.58
2023-08-08T20:28:13.976Z,2.00
2023-08-08T20:30:43.302Z,2.70
2023-08-08T20:33:11.185Z,2.38
2023-08-08T20:35:37.963Z,2.40
2023-08-08T20:38:05.359Z,2.47
2023-08-08T20:40:32.009Z,2.35
2023-08-08T20:42:58.746Z,2.28
2023-08-08T20:45:25.627Z,2.80
2023-08-08T20:47:52.496Z,2.75
2023-08-08T20:50:21.075Z,2.40
2023-08-08T20:52:50.112Z,2.40
2023-08-08T20:55:17.070Z,2.67
2023-08-08T20:57:43.646Z,2.03
2023-08-08T21:00:10.998Z,2.78
2023-08-08T21:02:40.613Z,2.22
2023-08-08T21:05:07.775Z,2.35
2023-08-08T21:07:35.441Z,2.10
2023-08-08T21:10:02.469Z,2.38
2023-08-08T21:12:29.057Z,2.70
2023-08-08T21:14:55.782Z,2.40
2023-08-08T21:17:22.716Z,2.45
2023-08-08T21:19:53.360Z,2.47
2023-08-08T21:22:21.286Z,2.15
2023-08-08T21:24:48.353Z,2.58
2023-08-08T21:27:15.040Z,2.42
2023-08-08T21:29:44.124Z,2.33
2023-08-08T21:32:10.723Z,2.97
2023-08-08T21:34:37.473Z,2.35
2023-08-08T21:37:04.366Z,2.35
2023-08-08T21:39:31.300Z,2.35
2023-08-08T21:41:57.860Z,2.28
2023-08-08T21:44:24.599Z,2.40
2023-08-08T21:46:52.734Z,2.58
2023-08-08T21:49:19.530Z,1.85
2023-08-08T21:51:46.840Z,2.67
2023-08-08T21:54:13.892Z,2.50
2023-08-08T21:56:42.347Z,2.80
2023-08-08T21:59:09.231Z,2.95
2023-08-08T22:01:35.932Z,2.65
2023-08-08T22:04:04.772Z,2.70
2023-08-08T22:06:31.827Z,3.92
2023-08-08T22:08:58.570Z,3.45
2023-08-08T22:11:25.183Z,3.58
2023-08-08T22:13:52.004Z,3.45
2023-08-08T22:16:18.789Z,2.83
2023-08-08T22:18:51.565Z,3.22
2023-08-08T22:21:18.211Z,2.40
2023-08-08T22:23:44.911Z,2.15
2023-08-08T22:26:11.607Z,2.15
2023-08-08T22:28:38.253Z,2.60
2023-08-08T22:31:05.735Z,2.70
2023-08-08T22:33:32.355Z,2.40
2023-08-08T22:35:58.992Z,2.70
2023-08-08T22:38:25.966Z,2.25
2023-08-08T22:40:52.558Z,2.17
2023-08-08T22:43:19.177Z,2.58
2023-08-08T22:45:45.812Z,2.58
2023-08-08T22:48:12.468Z,2.60
2023-08-08T22:50:41.895Z,2.40
2023-08-08T22:53:09.781Z,2.63
2023-08-08T22:55:36.370Z,2.88
2023-08-08T22:58:03.089Z,2.35
2023-08-08T23:00:29.687Z,2.55
2023-08-08T23:02:56.412Z,2.65
2023-08-08T23:05:23.316Z,2.53
2023-08-08T23:07:49.899Z,3.17
2023-08-08T23:10:16.615Z,2.65
2023-08-08T23:12:43.161Z,2.72
2023-08-08T23:15:10.333Z,2.65
2023-08-08T23:17:36.962Z,2.70
2023-08-08T23:20:04.136Z,2.30
2023-08-08T23:22:30.708Z,2.72
2023-08-08T23:24:57.275Z,2.80
2023-08-08T23:27:23.849Z,2.42
2023-08-08T23:29:50.384Z,2.63
2023-08-08T23:32:16.994Z,2.78
2023-08-08T23:34:43.551Z,2.63
2023-08-08T23:37:17.277Z,2.65
2023-08-08T23:39:47.762Z,2.42
2023-08-08T23:42:15.873Z,2.72
2023-08-08T23:44:42.571Z,2.70
2023-08-08T23:47:09.317Z,2.88
2023-08-08T23:49:35.944Z,3.10
2023-08-08T23:52:02.476Z,3.13
2023-08-08T23:54:29.022Z,3.10
2023-08-08T23:56:55.541Z,2.58
2023-08-08T23:59:22.123Z,2.95
